Time;durP1;ratioP1;P1;durP2;ratioP2;P2;SDS_P1;SDS_P2;PMS_P1;PMS_P2;Temp;Humidity;BMP_temperature;BMP_pressure;BME280_temperature;BME280_humidity;BME280_pressure;Samples;Min_cycle;Max_cycle;Signal;HPM_P1;HPM_P2
2022/04/04 00:01:49;;;;;;;3.97;3.57;;;;;;;2.67;94.49;101085.47;4987179;28;20261;-68
2022/04/04 00:04:15;;;;;;;4.20;3.70;;;;;;;2.57;94.74;101083.38;4985979;28;20240;-69
2022/04/04 00:06:42;;;;;;;4.13;3.37;;;;;;;2.55;94.48;101077.22;4984628;28;20233;-67
2022/04/04 00:09:09;;;;;;;6.03;3.10;;;;;;;2.48;94.90;101080.41;4986795;28;20241;-68
2022/04/04 00:11:36;;;;;;;5.93;4.10;;;;;;;2.54;94.06;101078.06;4987600;28;20793;-67
2022/04/04 00:14:03;;;;;;;4.63;4.07;;;;;;;2.60;93.99;101073.13;4987108;28;20238;-67
2022/04/04 00:16:29;;;;;;;4.57;3.13;;;;;;;2.65;93.90;101076.75;4984125;28;20774;-68
2022/04/04 00:18:56;;;;;;;5.67;3.53;;;;;;;2.69;93.64;101067.38;4968212;28;20389;-67
2022/04/04 00:21:22;;;;;;;5.73;3.00;;;;;;;2.59;94.21;101072.19;4977966;28;20265;-68
2022/04/04 00:23:48;;;;;;;3.77;3.43;;;;;;;2.59;94.75;101071.31;4987377;28;20241;-67
2022/04/04 00:26:16;;;;;;;3.90;2.93;;;;;;;2.67;94.13;101059.53;4979017;28;20867;-68
2022/04/04 00:28:42;;;;;;;3.73;3.40;;;;;;;2.52;94.70;101064.16;4987421;28;20271;-68
2022/04/04 00:31:09;;;;;;;3.67;3.37;;;;;;;2.49;94.74;101072.72;4972465;28;20240;-69
2022/04/04 00:33:35;;;;;;;3.60;3.30;;;;;;;2.56;94.97;101068.63;4986706;28;20292;-69
2022/04/04 00:36:02;;;;;;;4.10;3.70;;;;;;;2.44;94.85;101065.59;4985899;28;20714;-69
2022/04/04 00:38:28;;;;;;;6.07;3.73;;;;;;;2.53;94.78;101055.56;4975230;28;20291;-69
2022/04/04 00:40:55;;;;;;;3.83;3.33;;;;;;;2.51;94.81;101057.22;4967088;28;20323;-69
2022/04/04 00:43:23;;;;;;;3.90;3.60;;;;;;;2.54;94.72;101058.22;4984067;28;20648;-69
2022/04/04 00:45:50;;;;;;;4.30;3.90;;;;;;;2.65;94.26;101060.31;4986242;28;20264;-69
2022/04/04 00:48:16;;;;;;;4.07;3.67;;;;;;;2.67;92.77;101064.72;4982403;28;20290;-69
2022/04/04 00:50:43;;;;;;;4.23;3.83;;;;;;;2.43;94.10;101074.19;4984887;28;20688;-70
2022/04/04 00:53:10;;;;;;;4.20;3.80;;;;;;;2.32;95.54;101051.34;4971766;28;20658;-71
2022/04/04 00:55:37;;;;;;;3.97;3.63;;;;;;;2.42;94.70;101062.03;4980032;28;20307;-68
2022/04/04 00:58:03;;;;;;;4.57;3.40;;;;;;;2.32;95.05;101053.94;4986959;28;20245;-70
2022/04/04 01:00:31;;;;;;;4.20;3.80;;;;;;;2.34;95.41;101057.47;4972542;28;20689;-70
2022/04/04 01:02:59;;;;;;;5.30;4.17;;;;;;;2.38;94.71;101048.97;4979070;28;20241;-70
2022/04/04 01:05:25;;;;;;;4.67;4.27;;;;;;;2.40;94.58;101049.03;4977658;28;20249;-70
2022/04/04 01:07:52;;;;;;;4.10;3.80;;;;;;;2.31;93.77;101057.34;4972164;28;20265;-71
2022/04/04 01:10:18;;;;;;;4.27;3.70;;;;;;;2.37;94.57;101047.22;4970622;28;20233;-69
2022/04/04 01:12:51;;;;;;;4.00;3.70;;;;;;;2.36;94.43;101042.00;4983912;28;20295;-68
2022/04/04 01:15:17;;;;;;;4.57;4.10;;;;;;;2.41;94.47;101042.16;4986334;28;20280;-68
2022/04/04 01:17:45;;;;;;;4.77;4.13;;;;;;;2.34;93.96;101033.25;4986368;28;20264;-68
2022/04/04 01:20:12;;;;;;;4.73;4.27;;;;;;;2.36;94.00;101032.50;4986670;28;20244;-64
2022/04/04 01:22:38;;;;;;;4.97;4.10;;;;;;;2.34;93.93;101026.38;4985413;28;20237;-68
2022/04/04 01:25:09;;;;;;;5.60;4.93;;;;;;;2.30;94.90;101018.44;4981059;28;20260;-69
2022/04/04 01:27:35;;;;;;;6.93;4.50;;;;;;;2.38;93.43;101023.06;4978493;28;20236;-69
2022/04/04 01:30:02;;;;;;;4.87;4.47;;;;;;;2.32;94.21;101028.03;4985897;28;20645;-69
2022/04/04 01:32:28;;;;;;;5.20;4.57;;;;;;;2.18;94.86;101028.31;4985559;28;20243;-69
2022/04/04 01:34:54;;;;;;;5.00;4.60;;;;;;;2.15;95.36;101031.72;4975383;28;20245;-69
2022/04/04 01:37:21;;;;;;;4.47;3.77;;;;;;;1.97;96.02;101025.84;4985612;28;20657;-69
2022/04/04 01:39:47;;;;;;;5.73;4.70;;;;;;;2.08;96.27;101014.16;4979983;28;20248;-70
2022/04/04 01:42:15;;;;;;;4.60;4.20;;;;;;;2.10;96.08;101010.78;4979558;28;20242;-71
2022/04/04 01:44:41;;;;;;;5.37;4.87;;;;;;;2.02;95.80;101011.34;4986645;28;20245;-71
2022/04/04 01:47:08;;;;;;;7.30;5.93;;;;;;;2.01;96.26;101012.19;4974129;28;20237;-69
2022/04/04 01:49:34;;;;;;;5.00;4.60;;;;;;;2.19;95.75;101017.16;4985868;28;20245;-69
2022/04/04 01:52:00;;;;;;;5.27;4.70;;;;;;;2.19;95.03;101012.88;4979040;28;20665;-69
2022/04/04 01:54:27;;;;;;;4.93;4.47;;;;;;;2.11;95.08;101009.13;4985673;28;20280;-69
2022/04/04 01:56:53;;;;;;;5.40;4.90;;;;;;;2.14;95.35;101009.19;4969312;28;20296;-69
2022/04/04 01:59:21;;;;;;;5.63;5.13;;;;;;;2.07;95.10;100999.44;4983482;28;20236;-68
2022/04/04 02:01:47;;;;;;;6.03;5.20;;;;;;;2.00;96.90;101005.22;4985991;28;20299;-68
2022/04/04 02:04:14;;;;;;;6.07;5.03;;;;;;;2.06;96.29;101000.28;4983455;28;20236;-69
2022/04/04 02:06:40;;;;;;;6.03;4.83;;;;;;;2.07;95.98;101007.22;4969160;28;20245;-69
2022/04/04 02:09:07;;;;;;;7.23;5.97;;;;;;;2.07;96.00;100996.84;4985409;28;20853;-68
2022/04/04 02:11:34;;;;;;;4.90;4.50;;;;;;;2.13;96.16;100991.91;4978372;28;20238;-67
2022/04/04 02:14:02;;;;;;;8.43;5.10;;;;;;;2.19;95.20;100986.97;4983444;28;20327;-66
2022/04/04 02:16:30;;;;;;;5.23;4.80;;;;;;;2.21;95.44;100979.22;4973295;28;20320;-66
2022/04/04 02:18:56;;;;;;;6.27;5.67;;;;;;;2.11;95.11;100978.91;4978387;28;20249;-69
2022/04/04 02:21:22;;;;;;;6.10;5.07;;;;;;;2.02;96.39;100980.28;4985261;28;20259;-69
2022/04/04 02:23:51;;;;;;;6.77;5.43;;;;;;;2.01;96.43;100970.75;4985064;28;20248;-69
2022/04/04 02:26:17;;;;;;;5.50;5.00;;;;;;;1.86;97.28;100971.94;4981865;28;20232;-70
2022/04/04 02:28:44;;;;;;;5.73;5.07;;;;;;;1.95;97.06;100965.34;4976813;28;20484;-69
2022/04/04 02:31:10;;;;;;;7.03;5.73;;;;;;;1.97;96.72;100966.28;4974772;28;20387;-69
2022/04/04 02:33:38;;;;;;;5.27;4.60;;;;;;;1.96;96.67;100967.09;4974691;28;20314;-69
2022/04/04 02:36:05;;;;;;;6.50;5.73;;;;;;;1.97;96.60;100969.75;4985207;28;20252;-69
2022/04/04 02:38:31;;;;;;;6.27;5.67;;;;;;;1.90;97.05;100954.81;4984483;28;20299;-68
2022/04/04 02:40:58;;;;;;;5.53;5.03;;;;;;;1.94;97.33;100942.88;4985140;28;20311;-69
2022/04/04 02:43:25;;;;;;;5.47;4.97;;;;;;;1.87;97.12;100942.63;4983416;28;20237;-69
2022/04/04 02:45:51;;;;;;;6.20;5.57;;;;;;;1.80;97.49;100940.63;4976539;28;20274;-68
2022/04/04 02:48:18;;;;;;;8.33;5.70;;;;;;;1.87;97.02;100934.84;4970580;28;20256;-68
2022/04/04 02:50:46;;;;;;;6.77;5.70;;;;;;;1.91;97.27;100928.97;4974726;28;20269;-70
2022/04/04 02:53:13;;;;;;;6.13;5.53;;;;;;;1.86;97.28;100935.69;4969410;28;20240;-68
2022/04/04 02:58:24;;;;;;;5.93;5.43;;;;;;;1.76;98.38;100927.53;4981516;28;20788;-68
2022/04/04 03:00:50;;;;;;;6.77;6.10;;;;;;;1.96;97.66;100930.84;4968934;28;20245;-69
2022/04/04 03:03:17;;;;;;;8.37;6.17;;;;;;;1.88;97.65;100936.63;4970768;28;20268;-68
2022/04/04 03:05:46;;;;;;;6.47;5.87;;;;;;;1.90;98.07;100926.34;4995984;23;20325;-61
2022/04/04 03:08:13;;;;;;;6.90;6.20;;;;;;;1.87;97.77;100927.09;4988878;28;20237;-59
2022/04/04 03:10:39;;;;;;;6.83;6.23;;;;;;;1.83;98.35;100924.34;4989500;28;20248;-61
2022/04/04 03:13:06;;;;;;;6.60;6.00;;;;;;;1.82;98.58;100917.38;4989121;28;20243;-61
2022/04/04 03:15:34;;;;;;;6.37;5.40;;;;;;;1.91;97.92;100926.38;4983673;28;20233;-61
2022/04/04 03:18:02;;;;;;;7.00;5.93;;;;;;;2.00;98.20;100917.19;4969643;28;20241;-60
2022/04/04 03:20:30;;;;;;;6.60;6.00;;;;;;;2.06;97.32;100912.22;4966819;28;20319;-61
2022/04/04 03:22:58;;;;;;;6.80;5.30;;;;;;;1.94;97.78;100901.44;4969943;28;20410;-60
2022/04/04 03:25:25;;;;;;;8.03;5.97;;;;;;;2.02;97.55;100905.19;4973285;28;20256;-59
2022/04/04 03:27:53;;;;;;;6.53;5.87;;;;;;;2.05;97.34;100906.16;4969338;28;20245;-61
2022/04/04 03:30:21;;;;;;;8.50;5.53;;;;;;;2.18;96.09;100902.31;4986914;28;20234;-60
2022/04/04 03:32:49;;;;;;;8.47;5.73;;;;;;;2.06;96.90;100897.56;4972381;28;20241;-60
2022/04/04 03:35:15;;;;;;;5.80;5.30;;;;;;;2.07;97.00;100898.44;4968064;28;20241;-61
2022/04/04 03:37:43;;;;;;;7.00;6.23;;;;;;;2.04;96.34;100895.78;4969516;28;20258;-59
2022/04/04 03:40:13;;;;;;;6.37;5.77;;;;;;;2.01;95.99;100893.94;4968359;28;20588;-61
2022/04/04 03:42:40;;;;;;;6.63;6.03;;;;;;;2.01;97.23;100893.06;4969279;28;20305;-61
2022/04/04 03:45:07;;;;;;;8.77;6.33;;;;;;;2.02;97.09;100884.47;4983613;28;20287;-61
2022/04/04 03:47:34;;;;;;;6.50;6.00;;;;;;;2.11;97.11;100884.81;4969248;28;20592;-60
2022/04/04 03:50:00;;;;;;;6.30;5.80;;;;;;;2.14;96.83;100884.88;4967244;28;20230;-61
2022/04/04 03:52:27;;;;;;;7.23;5.90;;;;;;;2.28;95.73;100877.59;4969002;28;20243;-63
2022/04/04 03:54:53;;;;;;;6.57;5.83;;;;;;;2.13;95.75;100867.59;4974219;28;20299;-62
2022/04/04 03:57:21;;;;;;;6.33;5.67;;;;;;;2.08;95.45;100875.22;4968548;28;20743;-62
2022/04/04 03:59:48;;;;;;;7.07;4.83;;;;;;;2.09;95.89;100865.72;4979013;28;20269;-60
2022/04/04 04:02:14;;;;;;;6.27;5.67;;;;;;;2.10;96.23;100862.31;4976213;28;20268;-60
2022/04/04 04:04:41;;;;;;;6.87;5.30;;;;;;;1.91;97.33;100855.59;4966774;28;20638;-63
2022/04/04 04:07:10;;;;;;;5.33;4.87;;;;;;;1.97;97.38;100860.13;4964759;28;20253;-62
2022/04/04 04:09:37;;;;;;;6.40;5.30;;;;;;;2.03;96.91;100847.38;4974840;28;20643;-62
2022/04/04 04:12:05;;;;;;;6.77;5.80;;;;;;;2.03;96.67;100845.66;4971871;28;20249;-63
2022/04/04 04:14:33;;;;;;;6.63;5.23;;;;;;;2.12;96.60;100843.41;4967360;28;20245;-62
2022/04/04 04:16:59;;;;;;;7.33;5.20;;;;;;;2.11;95.97;100838.19;4966212;28;20284;-62
2022/04/04 04:22:13;;;;;;;6.57;5.97;;;;;;;2.02;96.23;100849.09;4968939;28;20252;-63
2022/04/04 04:24:40;;;;;;;7.33;6.33;;;;;;;1.97;96.62;100844.59;4964261;28;20248;-63
2022/04/04 04:27:07;;;;;;;7.80;5.70;;;;;;;2.02;96.53;100835.25;4966200;28;20248;-61
2022/04/04 04:29:35;;;;;;;6.47;5.73;;;;;;;2.02;96.40;100836.13;4964967;28;20758;-62
2022/04/04 04:32:01;;;;;;;6.00;5.50;;;;;;;1.89;96.53;100831.34;4967802;28;20245;-63
2022/04/04 04:34:28;;;;;;;6.10;5.50;;;;;;;1.99;97.12;100832.56;4962886;28;20723;-63
2022/04/04 04:36:54;;;;;;;6.17;5.67;;;;;;;1.92;96.91;100827.16;4966372;28;20252;-62
2022/04/04 04:39:21;;;;;;;6.67;5.90;;;;;;;2.04;96.41;100828.44;4961818;28;20782;-63
2022/04/04 04:41:50;;;;;;;5.43;4.87;;;;;;;1.99;96.01;100827.38;4967637;28;20271;-62
2022/04/04 04:44:16;;;;;;;6.57;5.97;;;;;;;1.96;96.23;100824.69;4969602;28;20248;-61
2022/04/04 04:46:44;;;;;;;6.23;5.03;;;;;;;1.89;96.64;100819.28;4971485;28;20293;-60
2022/04/04 04:49:11;;;;;;;6.30;5.03;;;;;;;1.95;96.95;100816.03;4967533;28;20272;-61
2022/04/04 04:51:37;;;;;;;7.83;6.07;;;;;;;2.05;96.41;100802.59;4966309;28;20238;-61
2022/04/04 04:54:04;;;;;;;5.63;5.13;;;;;;;1.98;96.76;100804.91;4966689;28;20250;-61
2022/04/04 04:56:31;;;;;;;6.23;5.63;;;;;;;2.09;95.48;100800.97;4966887;28;20240;-60
2022/04/04 04:58:57;;;;;;;5.63;5.13;;;;;;;2.26;95.04;100802.44;4971942;28;20234;-61
2022/04/04 05:01:24;;;;;;;5.83;5.33;;;;;;;2.18;95.08;100797.81;4967172;28;20226;-62
2022/04/04 05:03:52;;;;;;;7.73;5.87;;;;;;;2.10;95.03;100794.97;4967495;28;20323;-61
2022/04/04 05:06:18;;;;;;;5.47;4.97;;;;;;;2.09;95.50;100794.09;4965888;28;20296;-62
2022/04/04 05:08:44;;;;;;;6.73;5.30;;;;;;;2.06;95.18;100787.94;4964978;28;20269;-62
2022/04/04 05:11:11;;;;;;;6.43;5.83;;;;;;;2.17;94.71;100785.69;4967468;28;20246;-61
2022/04/04 05:13:37;;;;;;;9.93;5.60;;;;;;;2.34;94.49;100785.44;4966814;28;20237;-61
2022/04/04 05:16:09;;;;;;;6.00;5.40;;;;;;;2.26;94.61;100784.31;4966919;28;22508;-61
2022/04/04 05:18:36;;;;;;;6.17;5.57;;;;;;;2.38;93.91;100776.91;4966095;28;20423;-61
2022/04/04 05:21:04;;;;;;;6.60;6.00;;;;;;;2.42;92.89;100775.31;4966487;28;20288;-61
2022/04/04 05:23:31;;;;;;;8.47;6.27;;;;;;;2.42;93.57;100771.84;4965522;28;20233;-61
2022/04/04 05:25:57;;;;;;;6.13;5.53;;;;;;;2.41;92.96;100772.69;4971129;28;20793;-62
2022/04/04 05:28:23;;;;;;;5.77;5.23;;;;;;;2.36;93.67;100773.41;4966151;28;20242;-62
2022/04/04 05:30:50;;;;;;;9.20;6.27;;;;;;;2.31;94.21;100768.91;4966236;28;20280;-62
2022/04/04 05:33:16;;;;;;;6.03;5.33;;;;;;;2.44;93.58;100765.00;4958752;28;20237;-62
2022/04/04 05:35:43;;;;;;;6.63;5.73;;;;;;;2.38;93.76;100761.38;4966977;28;20355;-62
2022/04/04 05:38:12;;;;;;;7.43;5.57;;;;;;;2.61;92.43;100758.66;4968917;28;20664;-62
2022/04/04 05:40:39;;;;;;;6.33;5.73;;;;;;;2.64;91.34;100761.34;4968614;28;20245;-61
2022/04/04 05:43:06;;;;;;;8.50;6.07;;;;;;;2.58;91.96;100763.75;4966817;28;20308;-61
2022/04/04 05:45:35;;;;;;;6.10;5.50;;;;;;;2.63;91.16;100756.97;4966822;28;20265;-61
2022/04/04 05:48:02;;;;;;;5.90;5.37;;;;;;;2.59;92.03;100755.13;4966472;28;20292;-62
2022/04/04 05:50:28;;;;;;;7.63;6.13;;;;;;;2.62;91.46;100743.13;4966268;28;20233;-63
2022/04/04 05:52:54;;;;;;;7.43;5.53;;;;;;;2.83;90.50;100731.69;4966542;28;20237;-62
2022/04/04 05:55:22;;;;;;;6.40;5.80;;;;;;;2.77;90.29;100750.53;4965754;28;20301;-62
2022/04/04 05:57:48;;;;;;;8.50;6.37;;;;;;;2.76;90.55;100756.53;4964788;28;20767;-62
2022/04/04 06:00:16;;;;;;;6.90;6.30;;;;;;;2.78;89.54;100730.66;4964805;28;20238;-61
2022/04/04 06:02:43;;;;;;;7.00;6.40;;;;;;;2.81;89.75;100752.38;4965971;28;20704;-63
2022/04/04 06:05:11;;;;;;;6.70;5.80;;;;;;;2.82;89.84;100733.41;4965614;28;20238;-63
2022/04/04 06:07:37;;;;;;;8.97;7.10;;;;;;;2.77;89.34;100736.66;4966746;28;20244;-62
2022/04/04 06:10:06;;;;;;;10.53;7.33;;;;;;;2.79;89.29;100725.53;4967657;28;20696;-62
2022/04/04 06:12:35;;;;;;;7.07;6.37;;;;;;;2.86;89.48;100711.91;4974902;28;20237;-62
2022/04/04 06:15:01;;;;;;;7.93;7.13;;;;;;;3.05;88.45;100728.91;4965489;28;20616;-62
2022/04/04 06:17:28;;;;;;;8.57;7.67;;;;;;;3.16;87.31;100707.56;4965968;28;20316;-61
2022/04/04 06:19:55;;;;;;;7.00;6.40;;;;;;;3.27;86.89;100714.81;4963632;28;20691;-62
2022/04/04 06:22:22;;;;;;;7.87;7.07;;;;;;;3.29;85.39;100720.91;4965158;28;20240;-61
2022/04/04 06:24:49;;;;;;;7.13;6.53;;;;;;;3.33;85.67;100711.50;4966022;28;20247;-62
2022/04/04 06:27:16;;;;;;;7.77;6.97;;;;;;;3.32;85.83;100710.63;4965366;28;20982;-61
2022/04/04 06:29:45;;;;;;;7.40;6.70;;;;;;;3.49;84.97;100707.63;4957730;28;20761;-62
2022/04/04 06:32:11;;;;;;;9.20;8.27;;;;;;;3.48;84.75;100695.50;4960550;28;20253;-62
2022/04/04 06:34:38;;;;;;;12.00;8.67;;;;;;;3.51;84.27;100700.75;4963901;28;20292;-61
2022/04/04 06:37:05;;;;;;;8.37;7.60;;;;;;;3.49;84.54;100697.25;4965287;28;20233;-63
2022/04/04 06:39:32;;;;;;;8.50;7.60;;;;;;;3.56;83.00;100693.97;4960307;28;20245;-58
2022/04/04 06:41:59;;;;;;;7.60;6.90;;;;;;;3.67;82.89;100691.66;4965236;28;20244;-60
2022/04/04 06:44:26;;;;;;;9.53;8.43;;;;;;;3.62;82.67;100683.75;4967829;28;20259;-65
2022/04/04 06:46:54;;;;;;;10.47;8.47;;;;;;;3.66;82.16;100682.13;4962814;28;20249;-58
2022/04/04 06:49:20;;;;;;;8.97;7.87;;;;;;;3.70;81.21;100683.97;4961480;28;20316;-62
2022/04/04 06:51:47;;;;;;;8.47;7.53;;;;;;;3.68;81.15;100678.72;4963351;28;20290;-62
2022/04/04 06:54:13;;;;;;;12.40;8.60;;;;;;;3.67;81.35;100676.97;4964395;28;20816;-60
2022/04/04 06:56:40;;;;;;;11.07;10.07;;;;;;;3.77;80.34;100676.34;4964703;28;20245;-66
2022/04/04 06:59:06;;;;;;;9.00;8.20;;;;;;;3.86;80.45;100674.81;4964956;28;20249;-60
2022/04/04 07:01:32;;;;;;;10.80;7.97;;;;;;;3.89;80.13;100668.00;4964711;28;20291;-62
2022/04/04 07:04:00;;;;;;;10.82;9.82;;;;;;;4.02;80.06;100666.59;4962306;28;20504;-62
2022/04/04 07:06:27;;;;;;;9.13;8.10;;;;;;;3.94;80.05;100662.94;4969552;28;20257;-72
2022/04/04 07:08:53;;;;;;;9.77;8.87;;;;;;;4.06;79.60;100645.91;4966231;28;20226;-64
2022/04/04 07:11:19;;;;;;;9.77;8.87;;;;;;;4.12;78.14;100659.91;4966387;28;20318;-63
2022/04/04 07:13:48;;;;;;;11.60;8.70;;;;;;;4.16;78.00;100646.13;4965444;28;20238;-68
2022/04/04 07:16:14;;;;;;;10.17;9.07;;;;;;;4.14;77.86;100647.81;4963198;28;20245;-72
2022/04/04 07:18:41;;;;;;;10.03;8.43;;;;;;;4.14;76.36;100635.72;4964816;28;20958;-62
2022/04/04 07:21:08;;;;;;;12.07;10.13;;;;;;;4.39;76.69;100633.66;4964623;28;20289;-67
2022/04/04 07:23:35;;;;;;;11.23;9.73;;;;;;;4.26;76.42;100625.59;4963309;28;20258;-72
2022/04/04 07:26:01;;;;;;;9.47;8.47;;;;;;;4.42;76.16;100625.91;4965050;28;20304;-62
2022/04/04 07:28:28;;;;;;;10.83;9.60;;;;;;;4.27;75.61;100629.06;4960374;28;20411;-69
2022/04/04 07:30:55;;;;;;;10.93;9.83;;;;;;;4.23;75.30;100607.31;4964255;28;20246;-71
2022/04/04 07:33:21;;;;;;;10.33;9.27;;;;;;;4.29;76.08;100611.78;4961030;28;20296;-71
2022/04/04 07:35:47;;;;;;;11.80;9.67;;;;;;;4.39;75.56;100602.47;4963434;28;20246;-71
2022/04/04 07:38:16;;;;;;;11.77;9.47;;;;;;;4.41;75.30;100601.66;4958174;28;20238;-70
2022/04/04 07:40:43;;;;;;;10.10;9.10;;;;;;;4.48;74.78;100597.47;4964299;28;20289;-70
2022/04/04 07:43:09;;;;;;;9.80;8.80;;;;;;;4.48;74.26;100597.47;4970076;28;20237;-69
2022/04/04 07:45:35;;;;;;;12.93;9.57;;;;;;;4.64;73.67;100588.28;4975741;28;20249;-63
2022/04/04 07:48:03;;;;;;;11.67;10.23;;;;;;;4.60;73.03;100584.75;4958686;28;20242;-72
2022/04/04 07:50:30;;;;;;;10.40;9.37;;;;;;;4.61;72.94;100576.09;4966618;28;20397;-67
2022/04/04 07:52:57;;;;;;;10.50;9.43;;;;;;;4.68;73.01;100571.91;4960779;28;20739;-65
2022/04/04 07:55:24;;;;;;;10.80;9.47;;;;;;;4.75;72.15;100571.16;4963654;28;20296;-67
2022/04/04 07:57:51;;;;;;;11.30;10.20;;;;;;;4.69;73.09;100571.91;4959169;28;20273;-64
2022/04/04 08:00:18;;;;;;;10.83;9.80;;;;;;;4.79;72.06;100563.44;4975825;28;20469;-64
2022/04/04 08:02:44;;;;;;;9.77;8.87;;;;;;;4.76;71.81;100568.59;4963613;28;20238;-61
2022/04/04 08:05:11;;;;;;;10.93;9.43;;;;;;;4.62;71.57;100563.97;4965218;28;20250;-62
2022/04/04 08:07:40;;;;;;;14.73;13.23;;;;;;;4.67;71.15;100560.63;4965801;28;20449;-62
2022/04/04 08:10:07;;;;;;;11.07;10.03;;;;;;;4.65;71.46;100544.09;4962441;28;20280;-60
2022/04/04 08:12:35;;;;;;;11.95;10.75;;;;;;;4.74;70.56;100536.50;4958997;28;21579;-59
2022/04/04 08:15:02;;;;;;;9.87;8.97;;;;;;;4.79;70.13;100541.78;4965621;28;20755;-60
2022/04/04 08:17:28;;;;;;;11.10;9.97;;;;;;;4.78;69.22;100538.28;4963608;28;20234;-63
2022/04/04 08:19:55;;;;;;;11.23;10.03;;;;;;;5.00;69.35;100546.50;4961272;28;20247;-61
2022/04/04 08:22:22;;;;;;;21.97;11.10;;;;;;;4.93;68.62;100523.81;4965677;28;20464;-61
2022/04/04 08:24:50;;;;;;;19.93;13.33;;;;;;;5.10;67.23;100521.53;4965050;28;20307;-63
2022/04/04 08:27:16;;;;;;;11.77;10.53;;;;;;;5.20;66.39;100519.13;4969511;28;23061;-62
2022/04/04 08:29:44;;;;;;;10.77;8.87;;;;;;;5.11;66.29;100516.34;4966551;28;20262;-63
2022/04/04 08:32:10;;;;;;;9.80;8.80;;;;;;;5.14;66.83;100500.78;4966425;28;20527;-63
2022/04/04 08:34:36;;;;;;;9.03;8.23;;;;;;;5.17;66.13;100519.06;4964069;28;20611;-61
2022/04/04 08:37:03;;;;;;;10.13;9.23;;;;;;;5.19;66.52;100493.91;4966141;28;20231;-60
2022/04/04 08:39:29;;;;;;;9.50;8.60;;;;;;;5.14;66.30;100503.38;4965212;28;20234;-63
2022/04/04 08:41:57;;;;;;;9.77;8.77;;;;;;;5.13;65.87;100483.44;4964737;28;20237;-63
2022/04/04 08:44:24;;;;;;;9.67;8.77;;;;;;;5.12;65.76;100473.84;4962709;28;20227;-63
2022/04/04 08:46:52;;;;;;;9.30;8.40;;;;;;;5.40;65.24;100463.88;4962559;28;20289;-66
2022/04/04 08:49:19;;;;;;;11.20;8.83;;;;;;;5.34;65.27;100458.59;4967396;28;20239;-60
2022/04/04 08:51:45;;;;;;;9.20;8.27;;;;;;;5.43;64.67;100470.00;4965889;28;20246;-60
2022/04/04 08:54:12;;;;;;;8.70;7.80;;;;;;;5.39;64.69;100456.94;4968748;28;20708;-64
2022/04/04 08:56:38;;;;;;;9.93;8.30;;;;;;;5.45;63.95;100447.50;4962304;28;20270;-64
2022/04/04 08:59:05;;;;;;;9.43;8.43;;;;;;;5.53;63.48;100444.13;4967474;28;20665;-61
2022/04/04 09:01:31;;;;;;;10.23;8.30;;;;;;;5.57;62.88;100435.50;4962637;28;20712;-63
2022/04/04 09:06:52;;;;;;;7.93;7.13;;;;;;;5.42;63.11;100437.03;5081969;27;20599;-61
2022/04/04 09:09:19;;;;;;;10.23;7.83;;;;;;;5.38;62.50;100416.16;5066544;28;20826;-61
2022/04/04 09:11:52;;;;;;;7.83;7.13;;;;;;;5.61;62.67;100409.53;5060156;28;20289;-61
2022/04/04 09:14:22;;;;;;;8.33;7.50;;;;;;;5.75;62.10;100409.72;5059076;28;20713;-62
2022/04/04 09:16:55;;;;;;;8.77;7.37;;;;;;;5.64;61.87;100406.97;5058771;28;20235;-61
2022/04/04 09:19:27;;;;;;;9.77;7.70;;;;;;;5.56;61.56;100389.50;5052570;28;20231;-62
2022/04/04 09:21:56;;;;;;;8.83;7.53;;;;;;;5.62;61.40;100392.19;5064066;28;20227;-60
2022/04/04 09:24:22;;;;;;;7.93;7.17;;;;;;;5.92;60.87;100408.22;5055490;28;20242;-59
2022/04/04 09:26:51;;;;;;;10.13;9.00;;;;;;;5.79;61.07;100375.06;5060757;28;20436;-63
2022/04/04 09:29:20;;;;;;;8.80;7.87;;;;;;;5.89;60.36;100386.44;5061104;28;20230;-63
2022/04/04 09:31:53;;;;;;;13.10;7.27;;;;;;;5.91;59.91;100364.78;5059065;28;20963;-62
2022/04/04 09:34:20;;;;;;;9.20;7.87;;;;;;;5.96;59.36;100377.88;5045854;28;20227;-62
2022/04/04 09:36:48;;;;;;;12.53;8.13;;;;;;;5.94;59.54;100350.94;5053997;28;20246;-60
2022/04/04 09:39:17;;;;;;;9.23;8.03;;;;;;;5.94;58.89;100345.72;5047925;28;20238;-60
2022/04/04 09:45:08;;;;;;;8.90;8.00;;;;;;;6.14;58.96;100328.59;5052911;28;20269;-57
2022/04/04 09:47:49;;;;;;;8.43;7.53;;;;;;;6.42;58.43;100302.75;5057132;28;20735;-60
2022/04/04 09:50:30;;;;;;;13.90;7.93;;;;;;;6.82;56.79;100298.75;5036451;28;20235;-61
2022/04/04 09:52:57;;;;;;;10.93;8.83;;;;;;;7.01;56.25;100291.03;5051766;28;20244;-60
2022/04/04 09:55:29;;;;;;;9.57;8.57;;;;;;;6.98;54.94;100288.41;5037628;28;20716;-65
2022/04/04 09:57:57;;;;;;;11.50;8.57;;;;;;;6.93;55.44;100283.16;5059379;28;20239;-62
2022/04/04 10:00:23;;;;;;;9.13;8.23;;;;;;;6.93;54.84;100284.03;5059069;28;20231;-62
2022/04/04 10:02:50;;;;;;;8.43;7.53;;;;;;;6.92;55.10;100265.78;5061992;28;20228;-61
2022/04/04 10:05:17;;;;;;;9.40;8.50;;;;;;;6.67;55.42;100260.38;5060420;28;20286;-61
2022/04/04 10:07:43;;;;;;;9.30;8.03;;;;;;;6.68;55.48;100250.81;5050187;28;20478;-61
2022/04/04 10:10:10;;;;;;;8.67;7.77;;;;;;;6.66;55.14;100257.75;5046865;28;20286;-61
2022/04/04 10:12:39;;;;;;;8.97;8.07;;;;;;;6.69;54.92;100229.09;5062566;28;20231;-64
2022/04/04 10:15:08;;;;;;;10.40;8.40;;;;;;;6.65;55.21;100220.38;5058725;28;20775;-63
2022/04/04 10:17:35;;;;;;;11.13;8.50;;;;;;;6.73;55.29;100222.16;5048780;28;20238;-68
2022/04/04 10:20:02;;;;;;;9.57;7.97;;;;;;;6.74;54.86;100216.06;5038638;28;20236;-65
2022/04/04 10:22:29;;;;;;;10.03;8.37;;;;;;;6.81;54.86;100207.41;5055900;28;20224;-63
2022/04/04 10:24:57;;;;;;;9.10;8.20;;;;;;;6.58;55.08;100218.56;5051933;28;20235;-66
2022/04/04 10:27:24;;;;;;;9.13;8.20;;;;;;;6.60;55.07;100224.69;5054373;28;20512;-65
2022/04/04 10:30:00;;;;;;;11.33;8.73;;;;;;;6.52;55.48;100196.78;5059701;28;20700;-70
2022/04/04 10:32:28;;;;;;;8.93;8.03;;;;;;;6.55;55.60;100202.03;5048685;28;20301;-68
2022/04/04 10:34:55;;;;;;;8.63;7.83;;;;;;;6.43;55.60;100192.41;5047285;28;20290;-64
2022/04/04 10:37:28;;;;;;;9.60;8.70;;;;;;;6.53;55.29;100170.75;5045106;28;20611;-61
2022/04/04 10:39:55;;;;;;;8.53;7.63;;;;;;;6.61;55.35;100165.56;5045313;28;20232;-62
2022/04/04 10:42:27;;;;;;;9.53;8.63;;;;;;;6.71;55.36;100158.69;5046055;28;20479;-61
2022/04/04 10:45:00;;;;;;;8.67;7.80;;;;;;;6.81;54.83;100147.41;5046419;28;20248;-60
2022/04/04 10:47:29;;;;;;;9.77;8.10;;;;;;;6.87;54.27;100147.44;5051956;28;20238;-60
2022/04/04 10:49:56;;;;;;;8.53;7.70;;;;;;;6.80;53.79;100136.09;5044140;28;20334;-59
2022/04/04 10:52:39;;;;;;;9.03;8.20;;;;;;;6.88;54.28;100130.91;5046121;28;20825;-61
2022/04/04 10:55:30;;;;;;;11.10;7.37;;;;;;;7.00;53.77;100120.53;5043991;28;20235;-61
2022/04/04 10:57:58;;;;;;;8.63;7.83;;;;;;;6.89;53.33;100136.16;5041719;28;20585;-61
2022/04/04 11:00:34;;;;;;;14.03;7.60;;;;;;;6.89;53.58;100109.19;5032441;28;20238;-62
2022/04/04 11:03:01;;;;;;;8.07;7.23;;;;;;;6.99;52.55;100103.13;5037269;28;20231;-62
2022/04/04 11:08:13;;;;;;;13.70;7.40;;;;;;;7.05;51.88;100082.25;5044785;28;20333;-61
2022/04/04 11:10:40;;;;;;;10.10;6.90;;;;;;;7.04;51.96;100103.13;5046802;28;20236;-61
2022/04/04 11:13:08;;;;;;;7.57;6.07;;;;;;;6.96;51.15;100087.47;5047217;28;20340;-60
2022/04/04 11:15:43;;;;;;;13.90;6.63;;;;;;;7.02;50.67;100078.75;5046139;28;20230;-59
2022/04/04 11:18:10;;;;;;;9.03;6.67;;;;;;;7.01;50.84;100098.78;5045043;28;20315;-61
2022/04/04 11:20:38;;;;;;;8.90;6.53;;;;;;;6.96;50.57;100084.84;5049035;28;20506;-62
2022/04/04 11:23:08;;;;;;;7.85;6.55;;;;;;;6.86;50.81;100068.28;5042239;28;20421;-66
2022/04/04 11:25:37;;;;;;;14.20;6.20;;;;;;;6.83;50.96;100056.97;5045805;28;20232;-64
2022/04/04 11:28:04;;;;;;;6.70;6.00;;;;;;;6.78;50.95;100053.47;5043123;28;20594;-62
2022/04/04 11:30:30;;;;;;;6.10;5.60;;;;;;;6.71;51.38;100049.13;5044249;28;20231;-62
2022/04/04 11:32:59;;;;;;;7.23;5.77;;;;;;;6.79;51.57;100050.00;5046797;28;20232;-64
2022/04/04 11:35:30;;;;;;;10.07;6.47;;;;;;;6.79;52.06;100047.41;5045819;28;20316;-72
2022/04/04 11:37:59;;;;;;;6.30;5.70;;;;;;;6.87;52.30;100032.63;5045133;28;20232;-63
2022/04/04 11:40:33;;;;;;;17.37;5.60;;;;;;;7.03;51.99;100029.19;5052245;28;20356;-64
2022/04/04 11:43:02;;;;;;;7.20;6.27;;;;;;;7.30;51.86;100011.81;5047989;28;20931;-66
2022/04/04 11:45:33;;;;;;;9.97;6.07;;;;;;;7.25;51.99;100018.78;5046902;28;20310;-65
2022/04/04 11:48:03;;;;;;;9.03;5.00;;;;;;;7.07;52.47;100015.28;5044977;28;20232;-63